createdAt,value
2023-03-16T00:03:12.205Z,3.99
2023-03-16T00:08:14.920Z,4.04
2023-03-16T00:13:18.035Z,4.01
2023-03-16T00:18:19.637Z,3.87
2023-03-16T00:23:27.108Z,3.97
2023-03-16T00:28:35.111Z,3.94
2023-03-16T00:33:36.535Z,3.83
2023-03-16T00:38:45.361Z,3.87
2023-03-16T00:43:48.710Z,3.75
2023-03-16T00:48:51.412Z,3.73
2023-03-16T00:53:52.828Z,3.65
2023-03-16T00:58:57.615Z,3.56
2023-03-16T01:04:02.488Z,3.57
2023-03-16T01:09:05.526Z,3.52
2023-03-16T01:14:06.970Z,3.54
2023-03-16T01:19:08.581Z,3.49
2023-03-16T01:24:10.145Z,3.50
2023-03-16T01:29:12.489Z,3.50
2023-03-16T01:34:17.908Z,3.53
2023-03-16T01:39:19.361Z,3.56
2023-03-16T01:44:30.491Z,3.61
2023-03-16T01:49:36.553Z,3.46
2023-03-16T01:54:44.529Z,3.44
2023-03-16T02:00:10.327Z,3.34
2023-03-16T02:05:23.047Z,3.30
2023-03-16T02:10:27.490Z,3.33
2023-03-16T02:15:29.413Z,3.29
2023-03-16T02:20:50.543Z,3.28
2023-03-16T02:26:00.161Z,3.20
2023-03-16T02:31:02.270Z,3.20
2023-03-16T02:36:04.014Z,3.11
2023-03-16T02:41:15.180Z,3.04
2023-03-16T02:46:17.833Z,3.01
2023-03-16T02:51:19.224Z,3.00
2023-03-16T02:56:22.350Z,2.94
2023-03-16T03:01:24.117Z,2.95
2023-03-16T03:06:25.559Z,2.95
2023-03-16T03:11:27.013Z,2.92
2023-03-16T03:16:28.407Z,2.90
2023-03-16T03:21:29.860Z,2.94
2023-03-16T03:26:31.384Z,2.88
2023-03-16T03:31:32.883Z,2.85
2023-03-16T03:36:35.056Z,2.78
2023-03-16T03:41:36.441Z,2.73
2023-03-16T03:46:37.930Z,2.73
2023-03-16T03:51:41.042Z,2.65
2023-03-16T03:56:42.626Z,2.59
2023-03-16T04:01:44.530Z,2.59
2023-03-16T04:06:46.902Z,2.57
2023-03-16T04:11:48.267Z,2.55
2023-03-16T04:16:49.679Z,2.54
2023-03-16T04:21:51.681Z,2.53
2023-03-16T04:26:54.226Z,2.57
2023-03-16T04:31:55.641Z,2.58
2023-03-16T04:36:57.064Z,2.53
2023-03-16T04:41:58.460Z,2.51
2023-03-16T04:47:00.385Z,2.44
2023-03-16T04:52:02.165Z,2.44
2023-03-16T04:57:03.795Z,2.45
2023-03-16T05:02:05.162Z,2.41
2023-03-16T05:07:06.528Z,2.42
2023-03-16T05:12:08.389Z,2.40
2023-03-16T05:17:09.811Z,2.43
2023-03-16T05:22:11.298Z,2.39
2023-03-16T05:27:12.666Z,2.44
2023-03-16T05:32:14.040Z,2.45
2023-03-16T05:37:15.431Z,2.44
2023-03-16T05:42:16.821Z,2.50
2023-03-16T05:47:18.269Z,2.46
2023-03-16T05:52:19.695Z,2.45
2023-03-16T05:57:21.137Z,2.59
2023-03-16T06:02:22.589Z,2.59
2023-03-16T06:07:24.541Z,2.64
2023-03-16T06:12:25.968Z,2.60
2023-03-16T06:17:27.433Z,2.73
2023-03-16T06:22:30.214Z,2.80
2023-03-16T06:27:31.652Z,2.86
2023-03-16T06:32:33.079Z,3.07
2023-03-16T06:37:34.459Z,3.24
2023-03-16T06:42:35.778Z,3.37
2023-03-16T06:47:37.376Z,3.46
2023-03-16T06:52:39.112Z,3.58
2023-03-16T06:57:41.917Z,3.88
2023-03-16T07:02:43.795Z,4.08
2023-03-16T07:07:47.843Z,4.22
2023-03-16T07:12:50.246Z,4.54
2023-03-16T07:17:52.515Z,4.75
2023-03-16T07:22:53.918Z,4.78
2023-03-16T07:27:55.241Z,4.81
2023-03-16T07:32:57.207Z,5.06
2023-03-16T07:37:58.746Z,5.26
2023-03-16T07:43:00.100Z,5.48
2023-03-16T07:48:02.865Z,5.60
2023-03-16T07:53:05.275Z,5.84
2023-03-16T07:58:06.693Z,5.99
2023-03-16T08:03:08.292Z,6.13
2023-03-16T08:08:09.887Z,6.41
2023-03-16T08:13:11.333Z,6.55
2023-03-16T08:18:12.773Z,6.65
2023-03-16T08:23:15.537Z,6.72
2023-03-16T08:28:17.233Z,6.86
2023-03-16T08:33:23.183Z,7.05
2023-03-16T08:38:25.519Z,7.27
2023-03-16T08:43:27.104Z,7.41
2023-03-16T08:48:28.743Z,7.70
2023-03-16T08:53:30.438Z,7.81
2023-03-16T08:58:33.014Z,8.18
2023-03-16T09:03:35.326Z,8.40
2023-03-16T09:08:39.040Z,8.52
2023-03-16T09:13:41.716Z,8.91
2023-03-16T09:18:43.577Z,9.30
2023-03-16T09:23:45.382Z,9.59
2023-03-16T09:28:47.003Z,9.96
2023-03-16T09:33:48.459Z,10.26
2023-03-16T09:38:50.476Z,10.76
2023-03-16T09:44:19.984Z,11.37
2023-03-16T09:49:25.957Z,11.17
2023-03-16T09:54:33.316Z,11.18
2023-03-16T09:59:34.760Z,11.23
2023-03-16T10:04:50.463Z,11.59
2023-03-16T10:09:58.869Z,12.39
2023-03-16T10:15:23.597Z,12.81
2023-03-16T10:20:28.646Z,13.72
2023-03-16T10:25:43.435Z,14.74
2023-03-16T10:30:46.982Z,14.50
2023-03-16T10:35:59.785Z,14.11
2023-03-16T10:41:01.336Z,14.22
2023-03-16T10:46:02.886Z,14.10
2023-03-16T10:51:11.961Z,13.66
2023-03-16T10:56:20.602Z,15.48
2023-03-16T11:01:28.920Z,18.15
2023-03-16T11:06:33.275Z,20.03
2023-03-16T11:11:35.536Z,20.06
2023-03-16T11:16:46.519Z,20.87
2023-03-16T11:22:17.530Z,22.40
2023-03-16T11:27:30.300Z,24.56
2023-03-16T11:32:40.604Z,24.85
2023-03-16T11:38:10.919Z,25.76
2023-03-16T11:43:26.040Z,24.47
2023-03-16T11:48:36.806Z,23.94
2023-03-16T11:53:52.881Z,23.42
2023-03-16T11:59:18.869Z,22.73
2023-03-16T12:04:38.634Z,23.19
2023-03-16T12:09:59.230Z,21.94
2023-03-16T12:15:20.083Z,19.52
2023-03-16T12:20:26.625Z,18.38
2023-03-16T12:25:34.793Z,17.14
2023-03-16T12:30:39.305Z,16.77
2023-03-16T12:35:49.498Z,16.65
2023-03-16T12:41:00.874Z,17.35
2023-03-16T12:46:16.217Z,17.73
2023-03-16T12:51:17.610Z,17.37
2023-03-16T12:56:30.173Z,16.92
2023-03-16T13:01:41.405Z,20.86
2023-03-16T13:06:51.550Z,25.27
2023-03-16T13:11:53.179Z,22.57
2023-03-16T13:17:06.437Z,18.77
2023-03-16T13:22:30.321Z,18.00
2023-03-16T13:27:34.429Z,17.85
2023-03-16T13:32:36.587Z,18.15
2023-03-16T13:37:40.263Z,18.75
2023-03-16T13:42:47.789Z,20.59
2023-03-16T13:47:50.402Z,21.84
2023-03-16T13:53:04.124Z,21.67
2023-03-16T13:58:06.340Z,19.61
2023-03-16T14:03:17.658Z,18.88
2023-03-16T14:08:23.874Z,18.68
2023-03-16T14:13:27.987Z,17.85
2023-03-16T14:18:39.689Z,16.87
2023-03-16T14:23:44.756Z,16.09
2023-03-16T14:29:06.916Z,15.44
2023-03-16T14:34:35.484Z,15.00
2023-03-16T14:39:37.696Z,14.76
2023-03-16T14:44:39.133Z,14.46
2023-03-16T14:49:43.252Z,14.19
2023-03-16T14:54:44.756Z,13.96
2023-03-16T14:59:46.526Z,13.95
2023-03-16T15:04:48.691Z,13.79
2023-03-16T15:09:52.237Z,13.77
2023-03-16T15:15:12.204Z,13.85
2023-03-16T15:20:19.590Z,13.64
2023-03-16T15:25:40.516Z,13.40
2023-03-16T15:30:44.577Z,13.17
2023-03-16T15:35:48.051Z,13.10
2023-03-16T15:40:51.273Z,12.97
2023-03-16T15:45:54.280Z,12.94
2023-03-16T15:51:24.456Z,12.89
2023-03-16T15:56:31.490Z,12.70
2023-03-16T16:01:46.050Z,12.53
2023-03-16T16:06:49.319Z,12.52
2023-03-16T16:11:51.394Z,12.35
2023-03-16T16:16:54.268Z,12.20
2023-03-16T16:21:55.992Z,12.19
2023-03-16T16:26:57.404Z,12.13
2023-03-16T16:31:59.061Z,12.02
2023-03-16T16:37:00.548Z,11.94
2023-03-16T16:42:01.900Z,11.86
2023-03-16T16:47:03.794Z,11.71
2023-03-16T16:52:06.370Z,11.55
2023-03-16T16:57:15.773Z,11.53
2023-03-16T17:02:28.074Z,11.42
2023-03-16T17:07:29.546Z,11.38
2023-03-16T17:12:31.054Z,11.18
2023-03-16T17:17:32.859Z,11.12
2023-03-16T17:22:34.633Z,11.01
2023-03-16T17:27:36.317Z,10.87
2023-03-16T17:32:37.660Z,10.77
2023-03-16T17:37:39.072Z,10.74
2023-03-16T17:42:41.245Z,10.59
2023-03-16T17:47:42.665Z,10.61
2023-03-16T17:52:44.352Z,10.55
2023-03-16T17:57:48.470Z,10.48
2023-03-16T18:02:53.733Z,10.47
2023-03-16T18:07:58.479Z,10.40
2023-03-16T18:13:06.667Z,10.34
2023-03-16T18:18:13.732Z,10.31
2023-03-16T18:23:21.450Z,10.19
2023-03-16T18:28:23.257Z,10.11
2023-03-16T18:33:59.423Z,10.18
2023-03-16T18:39:03.956Z,10.18
2023-03-16T18:44:18.374Z,10.25
2023-03-16T18:49:30.321Z,10.29
2023-03-16T18:54:35.388Z,10.20
2023-03-16T18:59:36.865Z,10.09
2023-03-16T19:04:38.480Z,10.07
2023-03-16T19:09:39.798Z,9.87
2023-03-16T19:14:41.192Z,9.89
2023-03-16T19:19:42.937Z,9.87
2023-03-16T19:24:55.790Z,9.84
2023-03-16T19:29:57.227Z,9.76
2023-03-16T19:34:59.295Z,9.78
2023-03-16T19:40:01.731Z,9.70
2023-03-16T19:45:04.531Z,9.63
2023-03-16T19:50:18.558Z,9.62
2023-03-16T19:55:23.003Z,9.54
2023-03-16T20:00:26.072Z,9.49
2023-03-16T20:05:30.144Z,9.45
2023-03-16T20:10:32.748Z,9.42
2023-03-16T20:15:35.615Z,9.37
2023-03-16T20:20:37.479Z,9.33
2023-03-16T20:25:38.787Z,9.31
2023-03-16T20:30:40.150Z,9.26
2023-03-16T20:35:41.759Z,9.13
2023-03-16T20:40:44.955Z,9.12
2023-03-16T20:45:46.698Z,9.10
2023-03-16T20:50:48.263Z,9.02
2023-03-16T20:55:54.436Z,9.05
2023-03-16T21:01:00.965Z,8.98
2023-03-16T21:06:02.272Z,8.93
2023-03-16T21:11:03.782Z,8.91
2023-03-16T21:16:05.530Z,8.82
2023-03-16T21:21:13.331Z,8.81
2023-03-16T21:26:21.051Z,8.77
2023-03-16T21:31:22.962Z,8.74
2023-03-16T21:36:26.520Z,8.74
2023-03-16T21:41:28.239Z,8.71
2023-03-16T21:46:29.798Z,8.63
2023-03-16T21:51:31.917Z,8.62
2023-03-16T21:56:33.326Z,8.57
2023-03-16T22:01:40.863Z,8.48
2023-03-16T22:06:46.359Z,8.48
2023-03-16T22:11:48.242Z,8.45
2023-03-16T22:16:49.606Z,8.43
2023-03-16T22:21:51.837Z,8.36
2023-03-16T22:26:54.187Z,8.40
2023-03-16T22:32:04.068Z,8.33
2023-03-16T22:37:05.647Z,8.38
2023-03-16T22:42:18.912Z,8.35
2023-03-16T22:47:22.509Z,8.31
2023-03-16T22:52:29.647Z,8.30
2023-03-16T22:57:31.969Z,8.27
2023-03-16T23:02:33.350Z,8.25
2023-03-16T23:07:34.715Z,8.22
2023-03-16T23:12:36.056Z,8.19
2023-03-16T23:17:37.481Z,8.17
2023-03-16T23:22:40.776Z,8.16
2023-03-16T23:27:42.472Z,8.21
2023-03-16T23:32:44.833Z,8.18
2023-03-16T23:37:46.945Z,8.19
2023-03-16T23:42:48.993Z,8.14
2023-03-16T23:47:53.047Z,8.23
2023-03-16T23:52:55.222Z,8.16
2023-03-16T23:57:56.733Z,8.16
